Time;durP1;ratioP1;P1;durP2;ratioP2;P2;SDS_P1;SDS_P2;PMS_P1;PMS_P2;Temp;Humidity;BMP_temperature;BMP_pressure;BME280_temperature;BME280_humidity;BME280_pressure;Samples;Min_cycle;Max_cycle;Signal;HPM_P1;HPM_P2
2022/09/10 00:02:09;;;;;;;13.57;4.95;;;;;;;;;;5072370;28;20447;-74
2022/09/10 00:04:36;;;;;;;11.15;4.35;;;;;;;;;;5072144;28;20059;-74
2022/09/10 00:07:02;;;;;;;9.93;3.55;;;;;;;;;;5071996;28;20395;-74
2022/09/10 00:09:28;;;;;;;13.80;4.15;;;;;;;;;;5065454;28;20047;-75
2022/09/10 00:11:55;;;;;;;12.10;4.75;;;;;;;;;;5072145;28;20100;-75
2022/09/10 00:14:22;;;;;;;10.27;4.00;;;;;;;;;;5071875;28;20524;-75
2022/09/10 00:16:49;;;;;;;10.23;4.32;;;;;;;;;;5071612;28;20024;-75
2022/09/10 00:19:15;;;;;;;5.35;3.22;;;;;;;;;;5071674;28;20055;-74
2022/09/10 00:21:43;;;;;;;11.15;4.10;;;;;;;;;;5071868;28;20587;-72
2022/09/10 00:24:09;;;;;;;16.50;5.88;;;;;;;;;;5072149;28;20024;-74
2022/09/10 00:26:39;;;;;;;12.90;6.90;;;;;;;;;;5073763;28;20456;-74
2022/09/10 00:29:05;;;;;;;;;;;;;;;;;;5074333;28;20030;-74
2022/09/10 00:31:32;;;;;;;13.50;6.55;;;;;;;;;;5073051;28;20381;-74
2022/09/10 00:33:59;;;;;;;9.45;4.30;;;;;;;;;;5073839;28;20020;-74
2022/09/10 00:36:27;;;;;;;10.18;4.72;;;;;;;;;;5072900;28;20020;-75
2022/09/10 00:38:54;;;;;;;11.20;5.30;;;;;;;;;;5073300;28;20024;-74
2022/09/10 00:41:21;;;;;;;12.73;4.95;;;;;;;;;;5074274;28;20055;-75
2022/09/10 00:43:52;;;;;;;12.55;5.55;;;;;;;;;;5053600;28;20029;-74
2022/09/10 00:46:24;;;;;;;15.50;6.82;;;;;;;;;;5070689;28;20032;-73
2022/09/10 00:48:51;;;;;;;16.83;6.70;;;;;;;;;;5073372;28;20031;-74
2022/09/10 00:51:18;;;;;;;20.27;7.88;;;;;;;;;;5072478;28;20044;-75
2022/09/10 00:53:45;;;;;;;11.70;6.75;;;;;;;;;;5073920;28;20032;-74
2022/09/10 00:56:11;;;;;;;13.43;6.68;;;;;;;;;;5073484;28;20047;-75
2022/09/10 00:58:37;;;;;;;15.88;8.20;;;;;;;;;;5072896;28;20368;-75
2022/09/10 01:01:03;;;;;;;15.43;9.20;;;;;;;;;;5071684;28;20513;-74
2022/09/10 01:03:31;;;;;;;7.53;3.80;;;;;;;;;;5072441;28;20036;-74
2022/09/10 01:05:57;;;;;;;16.75;8.93;;;;;;;;;;5074279;28;20035;-73
2022/09/10 01:08:26;;;;;;;19.33;10.93;;;;;;;;;;5072091;28;20024;-74
2022/09/10 01:11:05;;;;;;;19.80;9.35;;;;;;;;;;5073328;28;20033;-75
2022/09/10 01:13:37;;;;;;;22.23;9.82;;;;;;;;;;5071803;28;20036;-75
2022/09/10 01:16:10;;;;;;;16.20;9.07;;;;;;;;;;5072947;28;20487;-75
2022/09/10 01:18:52;;;;;;;19.50;11.98;;;;;;;;;;5072379;28;20028;-75
2022/09/10 01:21:30;;;;;;;17.48;12.68;;;;;;;;;;5072096;28;20044;-76
2022/09/10 01:24:03;;;;;;;18.70;12.27;;;;;;;;;;5071559;28;20023;-75
2022/09/10 01:26:48;;;;;;;18.90;11.68;;;;;;;;;;5072381;28;20364;-74
2022/09/10 01:29:14;;;;;;;18.20;10.63;;;;;;;;;;5072558;28;20025;-75
2022/09/10 01:31:50;;;;;;;19.10;12.05;;;;;;;;;;5071878;28;20475;-74
2022/09/10 01:34:19;;;;;;;17.92;10.40;;;;;;;;;;5070990;28;20031;-74
2022/09/10 01:36:47;;;;;;;17.60;9.32;;;;;;;;;;5071948;28;20059;-75
2022/09/10 01:39:14;;;;;;;16.63;11.40;;;;;;;;;;5071489;28;20060;-74
2022/09/10 01:41:40;;;;;;;13.43;9.27;;;;;;;;;;5071152;28;20441;-74
2022/09/10 01:44:12;;;;;;;17.95;11.27;;;;;;;;;;5070775;28;20058;-74
2022/09/10 01:46:38;;;;;;;23.38;14.70;;;;;;;;;;5072537;28;20016;-75
2022/09/10 01:49:07;;;;;;;20.73;14.77;;;;;;;;;;5071585;28;20050;-75
2022/09/10 01:51:33;;;;;;;26.08;15.07;;;;;;;;;;5071503;28;20070;-75
2022/09/10 01:54:13;;;;;;;24.50;15.07;;;;;;;;;;5070497;28;20020;-73
2022/09/10 01:56:46;;;;;;;24.42;15.82;;;;;;;;;;5070321;28;20021;-75
2022/09/10 01:59:33;;;;;;;15.45;9.77;;;;;;;;;;5070490;28;20017;-75
2022/09/10 02:02:09;;;;;;;25.40;16.20;;;;;;;;;;5070614;28;20121;-73
2022/09/10 02:04:36;;;;;;;19.67;12.93;;;;;;;;;;5071180;28;20483;-75
2022/09/10 02:07:06;;;;;;;13.07;8.68;;;;;;;;;;5069360;28;20471;-74
2022/09/10 02:09:32;;;;;;;;;;;;;;;;;;5071260;28;20020;-75
2022/09/10 02:11:58;;;;;;;20.70;16.23;;;;;;;;;;5071109;28;19904;-74
2022/09/10 02:14:25;;;;;;;14.55;11.02;;;;;;;;;;5070537;28;20082;-75
2022/09/10 02:16:59;;;;;;;21.20;14.57;;;;;;;;;;5071598;28;20115;-73
2022/09/10 02:19:26;;;;;;;22.23;15.70;;;;;;;;;;5072381;28;20051;-74
2022/09/10 02:21:53;;;;;;;22.50;15.45;;;;;;;;;;5072299;28;20052;-74
2022/09/10 02:24:20;;;;;;;18.80;12.95;;;;;;;;;;5072396;28;20047;-74
2022/09/10 02:26:46;;;;;;;23.27;18.00;;;;;;;;;;5071454;28;20063;-74
2022/09/10 02:29:13;;;;;;;21.50;13.43;;;;;;;;;;5069428;28;20528;-74
2022/09/10 02:31:39;;;;;;;21.52;15.75;;;;;;;;;;5070690;28;20086;-74
2022/09/10 02:34:05;;;;;;;18.05;11.57;;;;;;;;;;5075012;28;20073;-75
2022/09/10 02:36:31;;;;;;;22.48;14.05;;;;;;;;;;5076154;28;20028;-74
2022/09/10 02:38:59;;;;;;;24.40;15.50;;;;;;;;;;5075556;28;20023;-74
2022/09/10 02:41:25;;;;;;;22.75;16.00;;;;;;;;;;5075749;28;20021;-75
2022/09/10 02:43:52;;;;;;;22.95;16.95;;;;;;;;;;5074917;28;20077;-73
2022/09/10 02:46:18;;;;;;;15.93;11.77;;;;;;;;;;5074280;28;20066;-74
2022/09/10 02:48:44;;;;;;;25.50;16.55;;;;;;;;;;5075059;28;20021;-74
2022/09/10 02:51:11;;;;;;;21.05;14.10;;;;;;;;;;5073858;28;20592;-75
2022/09/10 02:53:37;;;;;;;15.50;12.00;;;;;;;;;;5074239;28;20021;-75
2022/09/10 02:56:03;;;;;;;21.38;15.35;;;;;;;;;;5074283;28;20115;-73
2022/09/10 02:58:30;;;;;;;19.98;14.63;;;;;;;;;;5075716;28;20471;-75
2022/09/10 03:01:04;;;;;;;20.70;15.70;;;;;;;;;;5074855;28;20120;-74
2022/09/10 03:03:30;;;;;;;22.52;14.45;;;;;;;;;;5075043;28;20093;-74
2022/09/10 03:05:56;;;;;;;11.93;8.77;;;;;;;;;;5074634;28;20036;-75
2022/09/10 03:08:28;;;;;;;17.80;12.30;;;;;;;;;;5074800;28;20025;-75
2022/09/10 03:10:57;;;;;;;24.58;14.65;;;;;;;;;;5075036;28;20020;-75
2022/09/10 03:13:23;;;;;;;20.25;15.27;;;;;;;;;;5075770;28;20031;-74
2022/09/10 03:15:51;;;;;;;19.05;13.82;;;;;;;;;;5074567;28;20025;-76
2022/09/10 03:18:18;;;;;;;13.80;10.20;;;;;;;;;;5072469;28;20029;-75
2022/09/10 03:20:45;;;;;;;16.20;13.48;;;;;;;;;;5074268;28;20170;-75
2022/09/10 03:23:11;;;;;;;26.10;18.13;;;;;;;;;;5072889;28;20036;-75
2022/09/10 03:25:37;;;;;;;18.63;12.43;;;;;;;;;;5074441;28;20064;-73
2022/09/10 03:28:03;;;;;;;21.58;16.48;;;;;;;;;;5074265;28;20052;-74
2022/09/10 03:30:29;;;;;;;23.23;18.67;;;;;;;;;;5073368;28;20035;-74
2022/09/10 03:32:56;;;;;;;20.25;15.93;;;;;;;;;;5074152;28;20028;-74
2022/09/10 03:35:22;;;;;;;18.08;14.60;;;;;;;;;;5074477;28;20110;-76
2022/09/10 03:37:54;;;;;;;15.25;12.63;;;;;;;;;;5074287;28;20021;-75
2022/09/10 03:40:22;;;;;;;23.25;18.25;;;;;;;;;;5075081;28;20545;-76
2022/09/10 03:42:48;;;;;;;15.50;12.38;;;;;;;;;;5064464;28;20017;-74
2022/09/10 03:45:14;;;;;;;16.80;12.82;;;;;;;;;;5054379;28;20546;-74
2022/09/10 03:47:41;;;;;;;28.77;19.73;;;;;;;;;;5074832;28;20067;-74
2022/09/10 03:50:07;;;;;;;23.65;16.92;;;;;;;;;;5073526;28;20032;-74
2022/09/10 03:52:33;;;;;;;20.17;13.73;;;;;;;;;;5072666;28;20025;-74
2022/09/10 03:54:59;;;;;;;14.00;10.77;;;;;;;;;;5072584;28;20047;-74
2022/09/10 03:57:25;;;;;;;13.63;10.93;;;;;;;;;;5072883;28;20518;-75
2022/09/10 03:59:51;;;;;;;12.15;9.80;;;;;;;;;;5072161;28;20033;-74
2022/09/10 04:02:17;;;;;;;21.55;14.90;;;;;;;;;;5072496;28;20021;-74
2022/09/10 04:04:43;;;;;;;20.77;16.70;;;;;;;;;;5072997;28;20386;-75
2022/09/10 04:07:10;;;;;;;16.58;13.25;;;;;;;;;;5073284;28;20458;-74
2022/09/10 04:09:36;;;;;;;20.27;14.95;;;;;;;;;;5072701;28;20036;-76
2022/09/10 04:12:02;;;;;;;22.52;18.23;;;;;;;;;;5072377;28;20025;-75
2022/09/10 04:14:28;;;;;;;18.35;13.50;;;;;;;;;;5072755;28;20029;-75
2022/09/10 04:16:56;;;;;;;14.40;11.40;;;;;;;;;;5072369;28;20086;-74
2022/09/10 04:19:22;;;;;;;11.55;8.13;;;;;;;;;;5071980;28;20017;-74
2022/09/10 04:21:51;;;;;;;23.95;16.27;;;;;;;;;;5072010;28;20091;-73
2022/09/10 04:24:17;;;;;;;14.47;10.27;;;;;;;;;;5072588;28;20145;-74
2022/09/10 04:26:44;;;;;;;16.55;13.75;;;;;;;;;;5071779;28;20395;-74
2022/09/10 04:29:10;;;;;;;17.58;13.13;;;;;;;;;;5072127;28;20055;-74
2022/09/10 04:31:36;;;;;;;19.25;14.73;;;;;;;;;;5072554;28;20098;-75
2022/09/10 04:34:02;;;;;;;11.55;8.73;;;;;;;;;;5071203;28;20026;-74
2022/09/10 04:36:29;;;;;;;14.95;10.57;;;;;;;;;;5071898;28;20132;-75
2022/09/10 04:38:55;;;;;;;17.25;13.23;;;;;;;;;;5071304;28;20029;-73
2022/09/10 04:41:21;;;;;;;16.30;9.95;;;;;;;;;;5071185;28;20557;-74
2022/09/10 04:43:47;;;;;;;10.68;7.30;;;;;;;;;;5067360;28;20024;-73
2022/09/10 04:46:13;;;;;;;18.52;16.45;;;;;;;;;;5072378;28;20037;-73
2022/09/10 04:48:39;;;;;;;16.58;13.35;;;;;;;;;;5075294;28;20032;-75
2022/09/10 04:51:05;;;;;;;16.20;12.30;;;;;;;;;;5073562;28;20052;-73
2022/09/10 04:53:33;;;;;;;15.95;12.52;;;;;;;;;;5071877;28;20021;-74
2022/09/10 04:55:59;;;;;;;16.98;12.15;;;;;;;;;;5070795;28;20422;-73
2022/09/10 04:58:25;;;;;;;20.73;13.88;;;;;;;;;;5072019;28;20028;-74
2022/09/10 05:00:51;;;;;;;12.70;11.27;;;;;;;;;;5072389;28;20470;-75
2022/09/10 05:03:16;;;;;;;18.98;15.10;;;;;;;;;;5071488;28;20020;-74
2022/09/10 05:05:43;;;;;;;20.13;16.10;;;;;;;;;;5071575;28;20028;-75
2022/09/10 05:08:09;;;;;;;17.67;12.65;;;;;;;;;;5071733;28;20036;-74
2022/09/10 05:10:35;;;;;;;24.42;16.27;;;;;;;;;;5071899;28;20020;-75
2022/09/10 05:13:01;;;;;;;19.90;14.00;;;;;;;;;;5072737;28;20035;-73
2022/09/10 05:15:28;;;;;;;12.38;9.77;;;;;;;;;;5070954;28;20079;-74
2022/09/10 05:17:54;;;;;;;15.85;11.57;;;;;;;;;;5071656;28;20831;-74
2022/09/10 05:20:20;;;;;;;11.20;8.52;;;;;;;;;;5071616;28;20036;-73
2022/09/10 05:22:46;;;;;;;11.75;9.73;;;;;;;;;;5070624;28;20032;-73
2022/09/10 05:25:12;;;;;;;17.35;13.82;;;;;;;;;;5070503;28;20044;-73
2022/09/10 05:27:38;;;;;;;14.00;9.48;;;;;;;;;;5070958;28;20371;-75
2022/09/10 05:30:05;;;;;;;11.85;7.90;;;;;;;;;;5071365;28;20394;-72
2022/09/10 05:32:31;;;;;;;13.68;11.50;;;;;;;;;;5073468;28;20029;-73
2022/09/10 05:34:57;;;;;;;16.65;13.43;;;;;;;;;;5072072;28;20032;-74
2022/09/10 05:37:23;;;;;;;14.70;10.35;;;;;;;;;;5071205;28;20028;-74
2022/09/10 05:39:49;;;;;;;14.07;11.30;;;;;;;;;;5071225;28;20047;-74
2022/09/10 05:42:15;;;;;;;16.90;13.35;;;;;;;;;;5070228;28;20031;-75
2022/09/10 05:44:41;;;;;;;21.83;16.42;;;;;;;;;;5070035;28;20020;-75
2022/09/10 05:47:07;;;;;;;17.50;12.98;;;;;;;;;;5071128;28;20032;-74
2022/09/10 05:49:33;;;;;;;13.07;8.98;;;;;;;;;;5070589;28;20031;-75
2022/09/10 05:52:00;;;;;;;14.73;11.43;;;;;;;;;;5070944;28;20025;-75
2022/09/10 05:54:26;;;;;;;12.48;7.22;;;;;;;;;;5071031;28;20123;-74
2022/09/10 05:56:52;;;;;;;15.98;11.25;;;;;;;;;;5070309;28;20028;-74
2022/09/10 05:59:19;;;;;;;14.63;11.13;;;;;;;;;;5070810;28;20028;-74
2022/09/10 06:01:46;;;;;;;13.63;8.80;;;;;;;;;;5070175;28;20036;-74
2022/09/10 06:04:12;;;;;;;8.98;4.90;;;;;;;;;;5070641;28;20029;-74
2022/09/10 06:06:38;;;;;;;20.48;14.75;;;;;;;;;;5070308;28;20119;-75
2022/09/10 06:09:04;;;;;;;9.10;6.53;;;;;;;;;;5070516;28;20056;-75
2022/09/10 06:11:30;;;;;;;14.07;10.25;;;;;;;;;;5069721;28;20020;-74
2022/09/10 06:13:56;;;;;;;14.07;10.77;;;;;;;;;;5069757;28;20079;-74
2022/09/10 06:16:22;;;;;;;16.30;11.00;;;;;;;;;;5070354;28;20016;-74
2022/09/10 06:18:48;;;;;;;17.23;9.85;;;;;;;;;;5070958;28;20095;-75
2022/09/10 06:21:16;;;;;;;6.65;4.60;;;;;;;;;;5070760;28;20160;-75
2022/09/10 06:23:42;;;;;;;15.52;10.30;;;;;;;;;;5051229;28;20025;-75
2022/09/10 06:26:17;;;;;;;11.30;7.25;;;;;;;;;;5055393;28;20040;-74
2022/09/10 06:28:43;;;;;;;6.05;3.60;;;;;;;;;;5050932;28;20132;-75
2022/09/10 06:31:13;;;;;;;15.52;13.68;;;;;;;;;;5060883;28;20032;-76
2022/09/10 06:33:39;;;;;;;10.75;8.70;;;;;;;;;;5072379;28;20024;-74
2022/09/10 06:36:05;;;;;;;11.35;6.53;;;;;;;;;;5071650;28;20540;-73
2022/09/10 06:38:35;;;;;;;9.15;6.45;;;;;;;;;;5065268;28;20033;-74
2022/09/10 06:41:04;;;;;;;15.10;11.75;;;;;;;;;;5053995;28;20037;-74
2022/09/10 06:43:35;;;;;;;9.80;7.05;;;;;;;;;;5073072;28;20021;-74
2022/09/10 06:46:04;;;;;;;11.98;8.13;;;;;;;;;;5071236;28;20063;-74
2022/09/10 06:48:30;;;;;;;8.55;6.00;;;;;;;;;;5072256;28;20037;-76
2022/09/10 06:50:56;;;;;;;7.60;5.85;;;;;;;;;;5071312;28;20031;-76
2022/09/10 06:53:22;;;;;;;11.68;9.02;;;;;;;;;;5070964;28;20021;-75
2022/09/10 06:55:49;;;;;;;7.68;6.50;;;;;;;;;;5071374;28;20467;-75
2022/09/10 06:58:15;;;;;;;9.70;6.53;;;;;;;;;;5071397;28;20570;-76
2022/09/10 07:00:42;;;;;;;13.65;11.93;;;;;;;;;;5071581;28;20033;-76
2022/09/10 07:03:08;;;;;;;10.70;8.52;;;;;;;;;;5068793;28;20403;-76
2022/09/10 07:05:34;;;;;;;17.52;12.48;;;;;;;;;;5065056;28;20033;-75
2022/09/10 07:08:00;;;;;;;14.13;11.65;;;;;;;;;;5066937;28;20453;-76
2022/09/10 07:10:27;;;;;;;19.15;15.93;;;;;;;;;;5061863;28;20029;-75
2022/09/10 07:12:53;;;;;;;25.83;18.15;;;;;;;;;;5063435;28;20060;-74
2022/09/10 07:15:19;;;;;;;24.95;17.73;;;;;;;;;;5068763;28;20106;-73
2022/09/10 07:17:45;;;;;;;12.20;8.70;;;;;;;;;;5062017;28;20020;-73
2022/09/10 07:20:11;;;;;;;24.60;20.30;;;;;;;;;;5066481;28;20744;-73
2022/09/10 07:22:38;;;;;;;25.15;18.45;;;;;;;;;;5061879;28;20024;-73
2022/09/10 07:25:06;;;;;;;24.65;19.88;;;;;;;;;;5069757;28;20032;-73
2022/09/10 07:27:32;;;;;;;21.23;14.20;;;;;;;;;;5057400;28;20119;-72
2022/09/10 07:29:58;;;;;;;22.25;16.65;;;;;;;;;;5073646;28;20471;-73
2022/09/10 07:32:24;;;;;;;19.55;16.08;;;;;;;;;;5061727;28;20028;-73
2022/09/10 07:34:51;;;;;;;15.02;9.68;;;;;;;;;;5066863;28;20020;-74
2022/09/10 07:37:17;;;;;;;13.48;10.55;;;;;;;;;;5062732;28;20021;-74
2022/09/10 07:39:43;;;;;;;17.25;13.15;;;;;;;;;;5066770;28;20023;-74
2022/09/10 07:42:10;;;;;;;14.52;11.13;;;;;;;;;;5062050;28;20103;-73
2022/09/10 07:44:37;;;;;;;17.48;14.60;;;;;;;;;;5066164;28;20031;-73
2022/09/10 07:47:03;;;;;;;23.88;17.88;;;;;;;;;;5064035;28;20044;-74
2022/09/10 07:49:30;;;;;;;18.20;14.77;;;;;;;;;;5065780;28;20082;-74
2022/09/10 07:51:56;;;;;;;10.65;6.30;;;;;;;;;;5061175;28;20083;-74
2022/09/10 07:54:23;;;;;;;9.27;7.53;;;;;;;;;;5061878;28;20069;-72
2022/09/10 07:56:49;;;;;;;15.32;10.88;;;;;;;;;;5063272;28;20071;-74
2022/09/10 07:59:15;;;;;;;26.42;20.98;;;;;;;;;;5056570;28;20025;-72
2022/09/10 08:01:42;;;;;;;26.58;20.50;;;;;;;;;;5073041;28;20027;-73
2022/09/10 08:04:09;;;;;;;29.33;21.70;;;;;;;;;;5071588;28;20023;-73
2022/09/10 08:06:35;;;;;;;26.13;20.85;;;;;;;;;;5070613;28;20086;-73
2022/09/10 08:09:03;;;;;;;25.02;21.92;;;;;;;;;;5070151;28;20554;-73
2022/09/10 08:11:33;;;;;;;26.73;22.00;;;;;;;;;;5069475;28;20421;-73
2022/09/10 08:13:59;;;;;;;24.85;20.83;;;;;;;;;;5070447;28;20017;-73
2022/09/10 08:16:26;;;;;;;26.52;23.63;;;;;;;;;;5070168;28;20056;-73
2022/09/10 08:18:55;;;;;;;22.13;19.70;;;;;;;;;;5063589;28;20107;-73
2022/09/10 08:21:21;;;;;;;24.70;21.50;;;;;;;;;;5072430;28;20506;-73
2022/09/10 08:23:49;;;;;;;27.33;22.58;;;;;;;;;;5065633;28;20017;-72
2022/09/10 08:26:15;;;;;;;23.70;19.63;;;;;;;;;;5065354;28;20029;-72
2022/09/10 08:28:43;;;;;;;22.45;19.85;;;;;;;;;;5062077;28;20097;-73
2022/09/10 08:31:10;;;;;;;21.15;18.60;;;;;;;;;;5064500;28;20025;-73
2022/09/10 08:33:39;;;;;;;20.85;18.65;;;;;;;;;;5065872;28;20047;-73
2022/09/10 08:36:07;;;;;;;22.80;18.75;;;;;;;;;;5064488;28;20020;-73
2022/09/10 08:38:38;;;;;;;20.73;18.52;;;;;;;;;;5059729;28;20017;-73
2022/09/10 08:41:12;;;;;;;20.95;18.83;;;;;;;;;;5059112;28;20508;-71
2022/09/10 08:43:49;;;;;;;20.73;18.52;;;;;;;;;;5058166;28;20036;-73
2022/09/10 08:46:23;;;;;;;19.13;17.13;;;;;;;;;;5059164;28;20040;-73
2022/09/10 08:49:12;;;;;;;16.45;14.52;;;;;;;;;;5064694;28;20039;-73
2022/09/10 08:51:44;;;;;;;14.77;13.20;;;;;;;;;;5064644;28;20178;-74
2022/09/10 08:54:15;;;;;;;20.50;17.73;;;;;;;;;;5062303;28;20025;-73
2022/09/10 08:56:41;;;;;;;20.38;18.23;;;;;;;;;;5064432;28;20067;-72
2022/09/10 08:59:20;;;;;;;19.88;17.80;;;;;;;;;;5072531;28;20021;-72
2022/09/10 09:02:00;;;;;;;20.58;18.48;;;;;;;;;;5073046;28;20024;-72
2022/09/10 09:04:31;;;;;;;6.95;3.85;;;;;;;;;;5062941;28;20016;-71
2022/09/10 09:07:00;;;;;;;11.80;10.68;;;;;;;;;;5066397;28;20032;-72
2022/09/10 09:09:26;;;;;;;3.47;2.35;;;;;;;;;;5055167;28;20497;-73
2022/09/10 09:12:15;;;;;;;3.80;2.35;;;;;;;;;;5054301;28;20036;-73
2022/09/10 09:14:53;;;;;;;5.95;3.55;;;;;;;;;;5053176;28;20029;-72
2022/09/10 09:17:22;;;;;;;15.77;14.13;;;;;;;;;;5055059;28;20035;-72
2022/09/10 09:20:12;;;;;;;17.63;14.98;;;;;;;;;;5059660;28;20025;-73
2022/09/10 09:22:38;;;;;;;11.77;10.53;;;;;;;;;;5062362;28;20402;-73
2022/09/10 09:25:26;;;;;;;16.17;14.48;;;;;;;;;;5057629;28;20505;-72
2022/09/10 09:27:54;;;;;;;11.02;9.93;;;;;;;;;;5059243;28;20024;-74
2022/09/10 09:30:24;;;;;;;13.02;11.18;;;;;;;;;;5063312;28;20507;-73
2022/09/10 09:32:50;;;;;;;22.17;19.75;;;;;;;;;;5062941;28;20013;-74
2022/09/10 09:35:27;;;;;;;17.17;15.38;;;;;;;;;;5062059;28;20032;-74
2022/09/10 09:38:07;;;;;;;18.58;16.40;;;;;;;;;;5068066;28;20025;-74
2022/09/10 09:40:39;;;;;;;18.70;16.90;;;;;;;;;;5068825;28;20356;-74
2022/09/10 09:43:22;;;;;;;15.48;13.90;;;;;;;;;;5070964;28;20043;-74
2022/09/10 09:45:52;;;;;;;11.93;9.52;;;;;;;;;;5070983;28;20433;-73
2022/09/10 09:48:21;;;;;;;17.23;15.43;;;;;;;;;;5070448;28;20502;-73
2022/09/10 09:50:48;;;;;;;14.20;12.82;;;;;;;;;;5058753;28;20044;-73
2022/09/10 09:53:17;;;;;;;6.95;6.20;;;;;;;;;;5061989;28;20371;-75
2022/09/10 09:55:46;;;;;;;15.23;13.68;;;;;;;;;;5064340;28;20029;-74
2022/09/10 09:58:20;;;;;;;17.40;15.68;;;;;;;;;;5062171;28;20394;-75
2022/09/10 10:00:48;;;;;;;11.60;9.63;;;;;;;;;;5065749;28;20391;-76
2022/09/10 10:03:27;;;;;;;16.63;15.02;;;;;;;;;;5060517;28;20020;-77
2022/09/10 10:06:07;;;;;;;14.53;13.13;;;;;;;;;;5062448;28;20395;-76
2022/09/10 10:08:38;;;;;;;14.63;12.02;;;;;;;;;;5060164;28;20086;-76
2022/09/10 10:11:05;;;;;;;14.68;13.23;;;;;;;;;;5064167;28;20094;-76
2022/09/10 10:13:41;;;;;;;11.88;10.68;;;;;;;;;;5059955;28;20025;-78
2022/09/10 10:16:16;;;;;;;13.15;11.52;;;;;;;;;;5065878;28;20105;-77
2022/09/10 10:18:43;;;;;;;13.20;10.90;;;;;;;;;;5053226;28;20115;-78
2022/09/10 10:21:20;;;;;;;13.80;12.32;;;;;;;;;;5069887;28;20032;-78
2022/09/10 10:23:47;;;;;;;14.45;10.18;;;;;;;;;;5073406;28;20028;-78
2022/09/10 10:26:21;;;;;;;11.10;10.00;;;;;;;;;;5072420;28;20032;-77
2022/09/10 10:28:55;;;;;;;12.65;11.30;;;;;;;;;;5069871;28;20109;-78
2022/09/10 10:31:22;;;;;;;9.70;8.70;;;;;;;;;;5064984;28;20502;-77
2022/09/10 10:33:54;;;;;;;7.45;3.13;;;;;;;;;;5056805;28;20072;-79
2022/09/10 10:36:20;;;;;;;8.52;7.28;;;;;;;;;;5067163;28;20446;-79
2022/09/10 10:38:50;;;;;;;7.13;5.00;;;;;;;;;;5070001;28;20028;-78
2022/09/10 10:41:32;;;;;;;8.17;7.13;;;;;;;;;;5070226;28;20036;-77
2022/09/10 10:43:58;;;;;;;7.25;6.20;;;;;;;;;;5070502;28;20277;-77
2022/09/10 10:46:29;;;;;;;9.82;8.32;;;;;;;;;;5070003;28;20037;-77
2022/09/10 10:48:55;;;;;;;10.55;8.82;;;;;;;;;;5060824;28;20120;-79
2022/09/10 10:51:32;;;;;;;9.38;8.13;;;;;;;;;;5065760;28;20167;-78
2022/09/10 10:54:06;;;;;;;9.80;8.90;;;;;;;;;;5059664;28;20045;-77
2022/09/10 10:56:44;;;;;;;8.65;7.53;;;;;;;;;;5065730;28;20032;-78
2022/09/10 10:59:46;;;;;;;5.70;3.92;;;;;;;;;;5059628;28;20021;-78
2022/09/10 11:02:18;;;;;;;8.70;7.80;;;;;;;;;;5069346;28;20511;-76
2022/09/10 11:04:51;;;;;;;6.85;5.22;;;;;;;;;;5065926;28;20036;-77
2022/09/10 11:07:22;;;;;;;7.78;5.82;;;;;;;;;;5066577;28;20038;-76
2022/09/10 11:09:57;;;;;;;8.30;6.15;;;;;;;;;;5063666;28;20028;-77
2022/09/10 11:12:30;;;;;;;7.78;4.93;;;;;;;;;;5072625;28;20028;-76
2022/09/10 11:14:56;;;;;;;4.60;1.60;;;;;;;;;;5074457;28;20031;-77
2022/09/10 11:17:28;;;;;;;8.70;3.72;;;;;;;;;;5066736;28;20410;-77
2022/09/10 11:20:09;;;;;;;10.02;2.45;;;;;;;;;;5069400;28;20028;-78
2022/09/10 11:22:39;;;;;;;4.45;1.88;;;;;;;;;;5075452;28;20459;-78
2022/09/10 11:25:18;;;;;;;4.30;1.88;;;;;;;;;;5069669;28;20028;-78
2022/09/10 11:27:51;;;;;;;5.30;1.90;;;;;;;;;;5064521;28;20040;-78
2022/09/10 11:30:18;;;;;;;5.72;2.70;;;;;;;;;;5065372;28;20028;-78
2022/09/10 11:32:57;;;;;;;3.08;2.10;;;;;;;;;;5074177;28;20112;-78
2022/09/10 11:35:54;;;;;;;2.75;1.60;;;;;;;;;;5076444;28;20471;-79
2022/09/10 11:38:24;;;;;;;4.20;2.28;;;;;;;;;;5070545;28;20037;-79
2022/09/10 11:40:55;;;;;;;3.28;2.40;;;;;;;;;;5060821;28;20558;-79
2022/09/10 11:43:28;;;;;;;2.53;1.80;;;;;;;;;;5071806;28;20047;-78
2022/09/10 11:45:57;;;;;;;3.08;1.92;;;;;;;;;;5074559;28;20035;-79
2022/09/10 11:48:27;;;;;;;3.90;2.30;;;;;;;;;;5071311;28;20480;-79
2022/09/10 11:51:00;;;;;;;3.17;1.50;;;;;;;;;;5064143;28;20536;-79
2022/09/10 11:53:26;;;;;;;2.80;1.35;;;;;;;;;;5065156;28;20071;-81
2022/09/10 11:56:14;;;;;;;1.55;1.05;;;;;;;;;;5063879;28;20093;-82
2022/09/10 11:58:58;;;;;;;2.85;1.30;;;;;;;;;;5068061;28;20074;-80
2022/09/10 12:01:40;;;;;;;2.05;1.15;;;;;;;;;;5066093;28;20510;-80
2022/09/10 12:04:16;;;;;;;2.05;0.85;;;;;;;;;;5066577;28;20753;-82
2022/09/10 12:06:45;;;;;;;2.65;1.13;;;;;;;;;;5063728;28;20115;-81
2022/09/10 12:09:34;;;;;;;3.00;0.90;;;;;;;;;;5072579;28;20041;-79
2022/09/10 12:12:12;;;;;;;2.08;0.90;;;;;;;;;;5066218;28;20438;-81
2022/09/10 12:14:43;;;;;;;2.22;0.95;;;;;;;;;;5072375;28;20463;-81
2022/09/10 12:17:08;;;;;;;;;;;;;;;;;;5062343;28;20029;-80
2022/09/10 12:19:40;;;;;;;2.72;1.10;;;;;;;;;;5072699;28;19909;-80
2022/09/10 12:22:35;;;;;;;3.40;0.88;;;;;;;;;;5055825;28;20079;-81
2022/09/10 12:25:02;;;;;;;1.27;0.98;;;;;;;;;;5064747;28;20115;-80
2022/09/10 12:27:43;;;;;;;2.20;1.00;;;;;;;;;;5062379;28;20029;-81
2022/09/10 12:30:32;;;;;;;2.03;0.80;;;;;;;;;;5073640;28;20040;-79
2022/09/10 12:32:59;;;;;;;2.42;1.00;;;;;;;;;;5058461;28;20017;-82
2022/09/10 12:35:36;;;;;;;1.77;0.77;;;;;;;;;;5073360;28;20467;-80
2022/09/10 12:38:21;;;;;;;1.85;0.73;;;;;;;;;;5069941;28;20506;-82
2022/09/10 12:40:50;;;;;;;2.42;0.80;;;;;;;;;;5070704;28;20175;-79
2022/09/10 12:43:35;;;;;;;2.22;0.93;;;;;;;;;;5075992;28;20028;-81
2022/09/10 12:46:02;;;;;;;2.25;1.10;;;;;;;;;;5063470;28;20041;-81
2022/09/10 12:48:34;;;;;;;4.40;0.85;;;;;;;;;;5068633;28;20483;-80
2022/09/10 12:51:03;;;;;;;3.08;1.08;;;;;;;;;;5078509;28;20032;-76
2022/09/10 12:53:43;;;;;;;2.10;0.80;;;;;;;;;;5066614;28;20020;-76
2022/09/10 12:56:14;;;;;;;3.53;0.93;;;;;;;;;;5069021;28;20032;-77
2022/09/10 12:58:52;;;;;;;1.90;0.80;;;;;;;;;;5069501;28;20020;-76
2022/09/10 13:01:24;;;;;;;1.67;0.70;;;;;;;;;;5068138;28;20496;-76
2022/09/10 13:03:59;;;;;;;3.25;1.05;;;;;;;;;;5061569;28;20025;-75
2022/09/10 13:06:42;;;;;;;1.33;0.73;;;;;;;;;;5073819;28;20029;-76
2022/09/10 13:09:19;;;;;;;1.75;0.90;;;;;;;;;;5061727;28;20036;-76
2022/09/10 13:11:48;;;;;;;0.93;0.80;;;;;;;;;;5069351;28;20024;-76
2022/09/10 13:14:21;;;;;;;2.08;0.80;;;;;;;;;;5072415;28;20060;-76
2022/09/10 13:16:47;;;;;;;0.98;0.88;;;;;;;;;;5070727;28;20016;-76
2022/09/10 13:19:15;;;;;;;1.80;1.02;;;;;;;;;;5073521;28;20584;-77
2022/09/10 13:21:43;;;;;;;2.55;1.17;;;;;;;;;;5070569;28;20036;-75
2022/09/10 13:24:42;;;;;;;1.95;0.80;;;;;;;;;;5070379;28;20052;-75
2022/09/10 13:27:17;;;;;;;2.97;0.90;;;;;;;;;;5062927;28;20052;-76
2022/09/10 13:29:44;;;;;;;2.90;0.85;;;;;;;;;;5077587;28;20082;-76
2022/09/10 13:32:30;;;;;;;1.95;1.00;;;;;;;;;;5068663;28;20444;-77
2022/09/10 13:35:21;;;;;;;2.08;1.00;;;;;;;;;;5063855;28;20040;-75
2022/09/10 13:37:59;;;;;;;1.13;0.70;;;;;;;;;;5069030;28;20032;-77
2022/09/10 13:40:45;;;;;;;1.60;0.85;;;;;;;;;;5054269;28;20032;-77
2022/09/10 13:43:26;;;;;;;1.88;0.90;;;;;;;;;;5074822;28;20012;-75
2022/09/10 13:45:56;;;;;;;2.97;1.70;;;;;;;;;;5070717;28;20155;-76
2022/09/10 13:48:22;;;;;;;;;;;;;;;;;;5069404;28;20075;-76
2022/09/10 13:50:55;;;;;;;2.10;1.00;;;;;;;;;;5073021;28;19959;-75
2022/09/10 13:53:23;;;;;;;1.00;0.88;;;;;;;;;;5072171;28;20048;-75
2022/09/10 13:55:54;;;;;;;1.85;1.00;;;;;;;;;;5070196;28;20033;-76
2022/09/10 13:58:27;;;;;;;2.22;1.05;;;;;;;;;;5064313;28;20028;-75
2022/09/10 14:01:00;;;;;;;2.22;0.90;;;;;;;;;;5069295;28;20044;-76
2022/09/10 14:03:43;;;;;;;1.98;1.08;;;;;;;;;;5068830;28;20154;-76
2022/09/10 14:06:11;;;;;;;2.50;1.40;;;;;;;;;;5064293;28;20024;-76
2022/09/10 14:08:42;;;;;;;2.22;1.27;;;;;;;;;;5066443;28;20081;-76
2022/09/10 14:11:11;;;;;;;2.03;0.63;;;;;;;;;;5071363;28;20077;-76
2022/09/10 14:13:41;;;;;;;2.53;1.33;;;;;;;;;;5066906;28;20028;-77
2022/09/10 14:16:08;;;;;;;;;;;;;;;;;;5064874;28;20025;-77
2022/09/10 14:18:52;;;;;;;6.32;1.70;;;;;;;;;;5069361;28;19908;-75
2022/09/10 14:21:25;;;;;;;2.72;1.10;;;;;;;;;;5070661;28;20059;-76
2022/09/10 14:23:52;;;;;;;1.73;0.70;;;;;;;;;;5068267;28;20581;-76
2022/09/10 14:26:23;;;;;;;2.17;0.85;;;;;;;;;;5051113;28;20032;-76
2022/09/10 14:29:09;;;;;;;3.17;1.10;;;;;;;;;;5079533;28;20047;-76
2022/09/10 14:31:37;;;;;;;1.98;1.08;;;;;;;;;;5082836;28;20040;-76
2022/09/10 14:34:21;;;;;;;3.38;1.35;;;;;;;;;;5071388;28;20043;-75
2022/09/10 14:36:47;;;;;;;1.55;1.00;;;;;;;;;;5074748;28;20495;-77
2022/09/10 14:39:21;;;;;;;1.40;0.93;;;;;;;;;;5072667;28;20107;-77
2022/09/10 14:41:47;;;;;;;1.23;0.88;;;;;;;;;;5074728;28;20021;-77
2022/09/10 14:44:19;;;;;;;1.77;1.05;;;;;;;;;;5075820;28;20037;-77
2022/09/10 14:46:50;;;;;;;1.40;0.70;;;;;;;;;;5082917;28;20117;-77